»·PEaware :: FDX250 PANC-VHHH

FDX250 :: PANC-VHHH

FLIGHT INFORMATION

Flight Status: Arrived
Operator:
Federal Express
More flights by this operator :: More flights under this callsign
Pilot: Andrew J. (13363)
Aircraft: Unknown
(B77L)
More flights by this aircraft type
Origin: PANC Stevens Anchorage Intl
United States
Destination: VHHH Hong Kong Chek Lap Kok
Hong Kong
More flights between these airports :: More routes between these airports
Route: TED NODLE R220 NANZA/N0477F300 R220 NYMPH/K0900F300 R220 NUZAN/N0484F300 R220 NOGAL/N0491F320 R220 IXE Y88 NAKTU Y12 KEC Y24 GREEN/N0499F340 Y24 KOSHI A1 APU MKG A1 ELATO V522 ABBEY ABEY2B
File this flight plan on PilotEdge
Remarks: PBN / A1B1C1D1L1O1S2 NAV / RNVD1E2A1 DOF / 190105 REG / N715SB EET / UHMM0328 RJJJ0358 PAZA0359 RCAA0927 VHHK1027 OPR / FDX PER / D RALT / UHPP RMK / TCAS SIMBRIEF
Altitude:
(Current/Filed)
28,000ft
Speed:
(Current/Filed)
483kts
Departed: 05-Jan-19 12:15 AM
Arrived: 05-Jan-19 11:03 AM
Distance/Time
Traveled:
4405nm/10:48
Distance/Time
To Go:
Arrived

Flight Plot

Page will automatically refresh every two minutes.

Flight plan parsing failed; only flown route is shown


Map Options




Map Legend


Flown Route
Filed Route
Departure Airport
Arrival Airport
Navaid (VOR, NDB)
Fix

Horizontal Profiles

Position Reports

Time Latitude Longitude Heading Altitude Ground
Speed
05-Jan-19 00:14 61.250824 -156.358381 269 27886ft 452kts
05-Jan-19 00:15 61.250969 -156.619105 268 27923ft 452kts
05-Jan-19 00:16 61.252065 -156.879646 270 27952ft 451kts
05-Jan-19 00:17 61.252771 -157.141041 268 27972ft 451kts
05-Jan-19 00:18 61.252217 -157.401391 268 28014ft 450kts
05-Jan-19 00:19 61.251087 -157.659511 268 28012ft 450kts
05-Jan-19 00:20 61.249420 -157.922019 268 28005ft 450kts
05-Jan-19 00:21 61.247274 -158.181423 267 27998ft 448kts
05-Jan-19 00:22 61.244641 -158.439990 267 27989ft 448kts
05-Jan-19 00:23 61.241504 -158.699302 267 27981ft 448kts
05-Jan-19 00:24 61.237891 -158.957634 267 27972ft 448kts
05-Jan-19 00:25 61.233765 -159.216865 267 27968ft 447kts
05-Jan-19 00:25 61.229974 -159.431588 267 27967ft 447kts
05-Jan-19 00:27 61.224095 -159.732150 266 27956ft 447kts
05-Jan-19 00:27 61.219471 -159.947583 266 27954ft 447kts
05-Jan-19 00:28 61.213502 -160.204713 266 27953ft 446kts
05-Jan-19 00:30 61.205933 -160.504201 266 27953ft 446kts
05-Jan-19 00:30 61.200108 -160.718590 266 27954ft 445kts
05-Jan-19 00:31 61.192703 -160.974633 266 27955ft 445kts
05-Jan-19 00:32 61.184821 -161.230408 265 27956ft 444kts
05-Jan-19 00:33 61.176448 -161.486372 265 27963ft 444kts
05-Jan-19 00:34 61.167658 -161.740456 265 27963ft 444kts
05-Jan-19 00:35 61.158321 -161.996040 265 27960ft 444kts
05-Jan-19 00:36 61.148527 -162.251157 265 27956ft 443kts
05-Jan-19 00:37 61.139302 -162.504419 265 27956ft 442kts
05-Jan-19 00:38 61.127942 -162.759224 264 27956ft 442kts
05-Jan-19 00:39 61.114488 -163.011743 259 27956ft 443kts
05-Jan-19 00:40 61.081971 -163.256527 253 27954ft 442kts
05-Jan-19 00:41 61.046181 -163.497555 254 27942ft 442kts
05-Jan-19 00:42 61.011009 -163.740693 255 27941ft 441kts
05-Jan-19 00:43 60.976791 -163.984333 254 27937ft 442kts
05-Jan-19 00:44 60.940992 -164.227342 254 27931ft 441kts
05-Jan-19 00:45 60.905673 -164.468039 254 27929ft 440kts
05-Jan-19 00:46 60.869153 -164.707595 253 27930ft 439kts
05-Jan-19 00:47 60.831977 -164.946003 253 27930ft 439kts
05-Jan-19 00:48 60.794271 -165.185313 253 28630ft 443kts
05-Jan-19 00:49 60.755656 -165.424653 253 29938ft 443kts
05-Jan-19 00:50 60.716668 -165.662550 253 29928ft 439kts
05-Jan-19 00:51 60.679554 -165.899539 253 29928ft 438kts
05-Jan-19 00:52 60.641153 -166.134634 253 29928ft 436kts
05-Jan-19 00:53 60.602064 -166.369099 253 29929ft 436kts
05-Jan-19 00:54 60.562668 -166.602238 252 29928ft 436kts
05-Jan-19 00:55 60.522763 -166.835458 252 29926ft 436kts
05-Jan-19 00:56 60.482674 -167.066712 252 29928ft 434kts
05-Jan-19 00:57 60.442314 -167.296759 252 29927ft 433kts
05-Jan-19 00:58 60.402303 -167.526288 252 29926ft 430kts
05-Jan-19 00:59 60.361374 -167.752774 252 29924ft 428kts
05-Jan-19 01:00 60.320036 -167.977557 252 29922ft 427kts
05-Jan-19 01:01 60.279075 -168.202474 252 29917ft 426kts
05-Jan-19 01:02 60.237880 -168.426033 251 29915ft 427kts
05-Jan-19 01:03 60.196101 -168.649427 251 29912ft 427kts
05-Jan-19 01:04 60.155501 -168.874415 251 29908ft 428kts
05-Jan-19 01:05 60.114095 -169.097742 251 29906ft 427kts
05-Jan-19 01:06 60.072021 -169.319788 250 29901ft 426kts
05-Jan-19 01:07 60.029528 -169.541158 250 29878ft 424kts
05-Jan-19 01:08 59.986954 -169.760479 250 29841ft 423kts
05-Jan-19 01:09 59.944024 -169.979198 250 29831ft 422kts
05-Jan-19 01:10 59.900868 -170.196681 249 29825ft 422kts
05-Jan-19 01:11 59.857370 -170.413525 249 29837ft 423kts
05-Jan-19 01:12 59.813347 -170.630629 248 29838ft 422kts
05-Jan-19 01:13 59.769105 -170.846501 248 29834ft 422kts
05-Jan-19 01:14 59.724545 -171.061645 247 29830ft 422kts
05-Jan-19 01:15 59.679515 -171.276768 247 29826ft 422kts
05-Jan-19 01:16 59.635053 -171.491107 247 29825ft 422kts
05-Jan-19 01:17 59.589052 -171.703785 246 29823ft 421kts
05-Jan-19 01:18 59.542781 -171.917042 247 29734ft 422kts
05-Jan-19 01:19 59.498721 -172.131438 247 29731ft 423kts
05-Jan-19 01:20 59.454062 -172.345635 247 29728ft 424kts
05-Jan-19 01:21 59.408955 -172.560327 247 29728ft 425kts
05-Jan-19 01:22 59.365083 -172.775492 246 29728ft 425kts
05-Jan-19 01:23 59.319562 -172.990493 245 29726ft 426kts
05-Jan-19 01:24 59.273697 -173.204296 245 29724ft 427kts
05-Jan-19 01:25 59.227447 -173.417644 245 29718ft 427kts
05-Jan-19 01:26 59.180668 -173.631364 245 29715ft 427kts
05-Jan-19 01:27 59.134291 -173.844305 244 29712ft 428kts
05-Jan-19 01:28 59.086445 -174.056008 243 29713ft 429kts
05-Jan-19 01:29 59.038361 -174.269719 244 29710ft 431kts
05-Jan-19 01:30 58.991328 -174.483846 243 29708ft 432kts
05-Jan-19 01:31 58.943104 -174.699917 241 29707ft 445kts
05-Jan-19 01:32 58.893805 -174.922814 242 29644ft 450kts
05-Jan-19 01:33 58.844671 -175.145291 241 29642ft 451kts
05-Jan-19 01:34 58.794330 -175.367312 241 29640ft 452kts
05-Jan-19 01:35 58.743221 -175.590059 240 29638ft 454kts
05-Jan-19 01:36 58.691724 -175.812132 240 29636ft 455kts
05-Jan-19 01:37 58.639524 -176.034924 240 29634ft 457kts
05-Jan-19 01:38 58.586833 -176.257499 239 29632ft 460kts
05-Jan-19 01:39 58.533657 -176.479842 239 29630ft 459kts
05-Jan-19 01:40 58.480616 -176.702885 239 29649ft 459kts
05-Jan-19 01:41 58.426141 -176.923753 239 29452ft 461kts
05-Jan-19 01:42 58.371371 -177.144893 239 29422ft 463kts
05-Jan-19 01:43 58.315693 -177.366957 238 29419ft 465kts
05-Jan-19 01:44 58.259374 -177.588468 238 29383ft 467kts
05-Jan-19 01:45 58.203393 -177.811394 238 29380ft 470kts
05-Jan-19 01:46 58.147041 -178.035231 238 29379ft 470kts
05-Jan-19 01:47 58.089861 -178.257158 237 29377ft 470kts
05-Jan-19 01:48 58.032258 -178.478189 237 29375ft 469kts
05-Jan-19 01:49 57.974054 -178.699294 237 29373ft 471kts
05-Jan-19 01:50 57.915364 -178.920047 237 29371ft 474kts
05-Jan-19 01:51 57.855763 -179.142074 236 29368ft 476kts
05-Jan-19 01:52 57.795514 -179.364302 236 29367ft 477kts
05-Jan-19 01:53 57.735005 -179.585327 236 29366ft 478kts
05-Jan-19 01:54 57.673803 -179.806732 236 29364ft 478kts
05-Jan-19 01:55 57.612459 179.973456 236 29364ft 478kts
05-Jan-19 01:56 57.550622 179.754040 236 29392ft 480kts
05-Jan-19 01:57 57.488093 179.534249 236 29192ft 480kts
05-Jan-19 01:58 57.425232 179.315319 236 29176ft 481kts
05-Jan-19 01:59 57.361914 179.096979 236 29258ft 482kts
05-Jan-19 02:00 57.297876 178.878183 236 29297ft 482kts
05-Jan-19 02:01 57.233663 178.660797 235 29284ft 483kts
05-Jan-19 02:02 57.168949 178.443788 235 29271ft 483kts
05-Jan-19 02:03 57.103683 178.226921 235 29258ft 483kts
05-Jan-19 02:04 57.038221 178.011391 235 29246ft 483kts
05-Jan-19 02:05 56.972544 177.795388 236 29235ft 487kts
05-Jan-19 02:06 56.905665 177.579461 235 29228ft 487kts
05-Jan-19 02:07 56.838381 177.365158 235 29247ft 486kts
05-Jan-19 02:08 56.770421 177.151924 235 29235ft 487kts
05-Jan-19 02:09 56.701464 176.938680 235 29222ft 487kts
05-Jan-19 02:10 56.632859 176.726029 236 29214ft 489kts
05-Jan-19 02:11 56.564619 176.513004 235 29201ft 489kts
05-Jan-19 02:12 56.495055 176.300738 235 29185ft 489kts
05-Jan-19 02:13 56.425471 176.090602 235 29180ft 489kts
05-Jan-19 02:14 56.354847 175.879162 235 29169ft 489kts
05-Jan-19 02:15 56.284296 175.669811 235 29159ft 489kts
05-Jan-19 02:16 56.213364 175.461136 235 29146ft 490kts
05-Jan-19 02:17 56.141756 175.252283 235 29137ft 490kts
05-Jan-19 02:18 56.069973 175.044693 235 29127ft 491kts
05-Jan-19 02:19 55.997734 174.837594 235 29120ft 491kts
05-Jan-19 02:20 55.925630 174.632652 235 29112ft 489kts
05-Jan-19 02:21 55.852456 174.426382 235 29106ft 490kts
05-Jan-19 02:22 55.779008 174.221074 235 29097ft 491kts
05-Jan-19 02:23 55.706064 174.018905 235 29117ft 492kts
05-Jan-19 02:24 55.631325 173.813477 235 29111ft 491kts
05-Jan-19 02:26 55.556955 173.610715 235 29106ft 490kts
05-Jan-19 02:27 55.482661 173.409851 235 29101ft 488kts
05-Jan-19 02:28 55.408228 173.210280 235 29097ft 487kts
05-Jan-19 02:29 55.333428 173.011311 235 29094ft 486kts
05-Jan-19 02:30 55.258644 172.813933 235 29091ft 486kts
05-Jan-19 02:31 55.183566 172.617456 235 29087ft 485kts
05-Jan-19 02:32 55.108109 172.421163 235 29085ft 485kts
05-Jan-19 02:33 55.032842 172.226178 235 29084ft 484kts
05-Jan-19 02:34 54.956878 172.033102 235 29082ft 483kts
05-Jan-19 02:35 54.879406 171.842129 233 29082ft 482kts
05-Jan-19 02:36 54.800843 171.654349 233 29082ft 481kts
05-Jan-19 02:37 54.722214 171.466975 234 29083ft 479kts
05-Jan-19 02:38 54.644858 171.279755 234 29084ft 479kts
05-Jan-19 02:39 54.567087 171.095487 233 29085ft 479kts
05-Jan-19 02:40 54.487550 170.908749 233 29087ft 479kts
05-Jan-19 02:41 54.408618 170.724837 233 29090ft 478kts
05-Jan-19 02:42 54.329596 170.542063 233 29093ft 477kts
05-Jan-19 02:43 54.250275 170.359933 233 29097ft 475kts
05-Jan-19 02:44 54.171138 170.179558 233 29101ft 474kts
05-Jan-19 02:45 54.091852 170.000128 233 29106ft 474kts
05-Jan-19 02:46 54.012093 169.820915 233 29112ft 474kts
05-Jan-19 02:46 53.945719 169.672741 233 29116ft 473kts
05-Jan-19 02:48 53.852948 169.465976 232 29123ft 472kts
05-Jan-19 02:48 53.786228 169.319911 232 29125ft 471kts
05-Jan-19 02:50 53.701867 169.105331 241 29138ft 469kts
05-Jan-19 02:50 53.649325 168.945504 240 29144ft 468kts
05-Jan-19 02:51 53.584620 168.754858 240 29141ft 467kts
05-Jan-19 02:52 53.521275 168.564009 240 29150ft 468kts
05-Jan-19 02:53 53.455828 168.375033 239 29158ft 468kts
05-Jan-19 02:54 53.390114 168.185865 239 29167ft 469kts
05-Jan-19 02:55 53.324011 167.998256 239 29177ft 468kts
05-Jan-19 02:56 53.257492 167.811316 239 29186ft 466kts
05-Jan-19 02:57 53.192072 167.625155 240 29195ft 465kts
05-Jan-19 02:58 53.126472 167.440142 239 29204ft 463kts
05-Jan-19 02:59 53.060195 167.255842 239 29214ft 463kts
05-Jan-19 03:00 52.993894 167.072997 239 29224ft 462kts
05-Jan-19 03:01 52.927428 166.890965 239 29232ft 461kts
05-Jan-19 03:02 52.860541 166.709214 239 29205ft 461kts
05-Jan-19 03:03 52.793755 166.529014 239 29216ft 459kts
05-Jan-19 03:04 52.726679 166.349313 239 29225ft 458kts
05-Jan-19 03:05 52.659684 166.171089 239 29235ft 457kts
05-Jan-19 03:06 52.592594 165.993862 239 29245ft 456kts
05-Jan-19 03:07 52.525187 165.817036 239 29254ft 455kts
05-Jan-19 03:08 52.457929 165.641826 239 29264ft 454kts
05-Jan-19 03:09 52.390451 165.467176 238 29269ft 454kts
05-Jan-19 03:10 52.322639 165.292987 238 29282ft 455kts
05-Jan-19 03:11 52.254335 165.118646 238 29290ft 454kts
05-Jan-19 03:12 52.185997 164.945452 238 29298ft 454kts
05-Jan-19 03:13 52.117318 164.772557 238 29306ft 453kts
05-Jan-19 03:14 52.048749 164.601080 238 29314ft 452kts
05-Jan-19 03:15 51.979897 164.430054 238 29321ft 450kts
05-Jan-19 03:16 51.911416 164.261040 238 29307ft 449kts
05-Jan-19 03:17 51.842626 164.092386 238 29314ft 450kts
05-Jan-19 03:18 51.773697 163.923091 238 29319ft 450kts
05-Jan-19 03:19 51.704163 163.755819 238 29324ft 449kts
05-Jan-19 03:20 51.634669 163.589254 237 29329ft 448kts
05-Jan-19 03:21 51.564599 163.423282 237 29334ft 448kts
05-Jan-19 03:22 51.494471 163.258468 237 29340ft 446kts
05-Jan-19 03:23 51.424983 163.093667 238 29343ft 446kts
05-Jan-19 03:24 51.355108 162.928813 237 29346ft 446kts
05-Jan-19 03:25 51.284910 162.765373 237 29349ft 446kts
05-Jan-19 03:26 51.214265 162.602024 237 29351ft 446kts
05-Jan-19 03:27 51.143563 162.439609 236 29354ft 446kts
05-Jan-19 03:28 51.072775 162.277997 236 29357ft 445kts
05-Jan-19 03:29 51.001621 162.116513 236 29359ft 445kts
05-Jan-19 03:30 50.930481 161.956120 236 29362ft 445kts
05-Jan-19 03:31 50.859012 161.795955 236 29364ft 445kts
05-Jan-19 03:32 50.787120 161.635784 236 29366ft 445kts
05-Jan-19 03:33 50.715231 161.476649 236 29368ft 445kts
05-Jan-19 03:34 50.643157 161.318049 236 29370ft 445kts
05-Jan-19 03:35 50.570582 161.159301 235 29372ft 445kts
05-Jan-19 03:36 50.498060 161.001621 235 29373ft 445kts
05-Jan-19 03:37 50.425319 160.844404 235 29375ft 446kts
05-Jan-19 03:38 50.352412 160.686461 235 29376ft 446kts
05-Jan-19 03:39 50.278908 160.530209 235 29377ft 446kts
05-Jan-19 03:40 50.205011 160.373800 235 29377ft 447kts
05-Jan-19 03:41 50.131163 160.218789 235 29382ft 447kts
05-Jan-19 03:42 50.056571 160.063286 235 29382ft 447kts
05-Jan-19 03:43 49.982102 159.907977 235 29384ft 447kts
05-Jan-19 03:44 49.907999 159.753146 234 29385ft 447kts
05-Jan-19 03:45 49.833641 159.598816 234 29386ft 447kts
05-Jan-19 03:46 49.758215 159.445085 234 29387ft 447kts
05-Jan-19 03:47 49.683036 159.292053 234 29388ft 447kts
05-Jan-19 03:48 49.607860 159.139710 234 29389ft 447kts
05-Jan-19 03:49 49.532005 158.987183 234 29391ft 448kts
05-Jan-19 03:50 49.456821 158.834661 234 29390ft 448kts
05-Jan-19 03:51 49.381450 158.682557 234 29391ft 448kts
05-Jan-19 03:52 49.305319 158.530711 234 29396ft 448kts
05-Jan-19 03:53 49.229171 158.379790 234 29461ft 448kts
05-Jan-19 03:54 49.152575 158.228828 234 29475ft 448kts
05-Jan-19 03:55 49.075908 158.078626 234 30957ft 443kts
05-Jan-19 03:56 48.999745 157.930240 234 31482ft 447kts
05-Jan-19 03:57 48.922754 157.781052 234 31485ft 447kts
05-Jan-19 03:58 48.845853 157.632886 233 31488ft 446kts
05-Jan-19 03:59 48.768876 157.485384 233 31492ft 446kts
05-Jan-19 04:00 48.691449 157.337835 233 31495ft 446kts
05-Jan-19 04:01 48.614012 157.191068 233 31500ft 447kts
05-Jan-19 04:02 48.536382 157.044745 233 31502ft 447kts
05-Jan-19 04:03 48.458274 156.898323 233 31506ft 447kts
05-Jan-19 04:04 48.380227 156.752810 233 31510ft 447kts
05-Jan-19 04:05 48.301983 156.607697 233 31514ft 447kts
05-Jan-19 04:06 48.223140 156.462291 233 31518ft 448kts
05-Jan-19 04:07 48.144313 156.317672 233 31521ft 448kts
05-Jan-19 04:08 48.065399 156.173692 233 31526ft 448kts
05-Jan-19 04:09 47.986038 156.029659 232 31530ft 448kts
05-Jan-19 04:10 47.906751 155.886519 232 31535ft 448kts
05-Jan-19 04:11 47.826752 155.742869 232 31541ft 451kts
05-Jan-19 04:12 47.746723 155.599904 232 31544ft 450kts
05-Jan-19 04:13 47.666588 155.457534 232 31548ft 450kts
05-Jan-19 04:14 47.586163 155.315363 232 31608ft 449kts
05-Jan-19 04:15 47.505757 155.174011 232 31637ft 449kts
05-Jan-19 04:16 47.425150 155.032992 232 31642ft 449kts
05-Jan-19 04:17 47.344085 154.891965 232 31651ft 450kts
05-Jan-19 04:18 47.263053 154.751709 231 31657ft 450kts
05-Jan-19 04:19 47.181848 154.611867 231 31664ft 450kts
05-Jan-19 04:20 47.100182 154.471955 231 31671ft 450kts
05-Jan-19 04:21 47.018662 154.333014 231 31677ft 449kts
05-Jan-19 04:22 46.936836 154.194243 231 31683ft 448kts
05-Jan-19 04:23 46.855214 154.056541 231 31689ft 448kts
05-Jan-19 04:24 46.773444 153.919290 231 31695ft 449kts
05-Jan-19 04:25 46.691120 153.781788 231 31701ft 448kts
05-Jan-19 04:26 46.608988 153.645296 231 31706ft 449kts
05-Jan-19 04:27 46.526476 153.508855 230 31712ft 448kts
05-Jan-19 04:28 46.444092 153.373298 230 31717ft 449kts
05-Jan-19 04:29 46.361720 153.237629 230 31721ft 449kts
05-Jan-19 04:30 46.278332 153.102308 230 31727ft 450kts
05-Jan-19 04:31 46.194845 152.967554 230 31732ft 451kts
05-Jan-19 04:32 46.110479 152.833872 230 31736ft 451kts
05-Jan-19 04:33 46.025566 152.700058 230 31740ft 452kts
05-Jan-19 04:34 45.941425 152.566750 230 31744ft 448kts
05-Jan-19 04:35 45.857208 152.433663 230 31748ft 450kts
05-Jan-19 04:36 45.772665 152.301388 230 31751ft 450kts
05-Jan-19 04:37 45.687860 152.169414 229 31755ft 451kts
05-Jan-19 04:38 45.602559 152.037338 229 31759ft 451kts
05-Jan-19 04:39 45.517356 151.906050 229 31763ft 452kts
05-Jan-19 04:40 45.431947 151.775086 229 31765ft 452kts
05-Jan-19 04:41 45.346195 151.644221 229 31767ft 451kts
05-Jan-19 04:42 45.260674 151.514313 229 31769ft 451kts
05-Jan-19 04:43 45.175029 151.384847 229 31772ft 450kts
05-Jan-19 04:45 45.089050 151.255480 229 31774ft 450kts
05-Jan-19 04:46 45.003269 151.127007 229 31775ft 449kts
05-Jan-19 04:47 44.917305 150.998876 229 31778ft 450kts
05-Jan-19 04:48 44.830849 150.870587 229 31779ft 450kts
05-Jan-19 04:49 44.744536 150.743137 229 31780ft 450kts
05-Jan-19 04:50 44.657764 150.615589 229 31782ft 450kts
05-Jan-19 04:51 44.571089 150.488765 229 31782ft 450kts
05-Jan-19 04:52 44.484350 150.362435 229 31783ft 450kts
05-Jan-19 04:53 44.397200 150.236076 229 31784ft 451kts
05-Jan-19 04:54 44.310196 150.110508 229 31785ft 450kts
05-Jan-19 04:55 44.223055 149.985320 229 31784ft 449kts
05-Jan-19 04:56 44.135598 149.860219 229 31784ft 449kts
05-Jan-19 04:57 44.048284 149.735926 229 31785ft 450kts
05-Jan-19 04:58 43.960720 149.611808 229 31798ft 450kts
05-Jan-19 04:59 43.872945 149.487960 229 31800ft 449kts
05-Jan-19 05:00 43.785423 149.365017 229 31800ft 448kts
05-Jan-19 05:01 43.697861 149.242528 229 31798ft 448kts
05-Jan-19 05:02 43.610004 149.120219 229 31853ft 447kts
05-Jan-19 05:02 43.537010 149.018992 229 31854ft 447kts
05-Jan-19 05:04 43.434399 148.877311 229 31856ft 446kts
05-Jan-19 05:04 43.361239 148.776718 230 31857ft 447kts
05-Jan-19 05:06 43.258681 148.636300 229 31858ft 447kts
05-Jan-19 05:06 43.185080 148.536032 230 31858ft 446kts
05-Jan-19 05:08 43.082445 148.396759 230 31856ft 445kts
05-Jan-19 05:08 43.009195 148.297778 230 31842ft 444kts
05-Jan-19 05:10 42.906498 148.159593 230 31842ft 442kts
05-Jan-19 05:11 42.818912 148.042278 230 31843ft 441kts
05-Jan-19 05:11 42.746037 147.945039 230 31866ft 441kts
05-Jan-19 05:12 42.658229 147.828320 230 31867ft 440kts
05-Jan-19 05:13 42.571072 147.712347 230 31867ft 439kts
05-Jan-19 05:14 42.483542 147.597252 230 31868ft 438kts
05-Jan-19 05:15 42.395694 147.482177 230 31869ft 438kts
05-Jan-19 05:16 42.308116 147.367684 230 31864ft 438kts
05-Jan-19 05:17 42.220394 147.253507 230 31865ft 438kts
05-Jan-19 05:18 42.132399 147.138893 231 31865ft 438kts
05-Jan-19 05:19 42.044934 147.024799 230 31866ft 440kts
05-Jan-19 05:20 41.956387 146.910899 231 31865ft 432kts
05-Jan-19 05:21 41.869839 146.799833 231 31875ft 431kts
05-Jan-19 05:22 41.782959 146.688922 231 31876ft 432kts
05-Jan-19 05:23 41.695642 146.577926 231 31877ft 433kts
05-Jan-19 05:24 41.608799 146.466858 231 31879ft 432kts
05-Jan-19 05:25 41.521729 146.356208 231 31880ft 433kts
05-Jan-19 05:26 41.434112 146.245592 231 31879ft 432kts
05-Jan-19 05:27 41.346871 146.135896 231 31885ft 431kts
05-Jan-19 05:28 41.259696 146.026725 231 31887ft 429kts
05-Jan-19 05:29 41.172483 145.917925 231 31892ft 430kts
05-Jan-19 05:30 41.085623 145.809978 231 31892ft 426kts
05-Jan-19 05:31 40.999334 145.703149 232 31896ft 424kts
05-Jan-19 05:32 40.912999 145.596658 232 31900ft 423kts
05-Jan-19 05:33 40.827129 145.491135 232 31903ft 421kts
05-Jan-19 05:34 40.741136 145.385850 232 31887ft 420kts
05-Jan-19 05:35 40.655579 145.281448 232 31890ft 419kts
05-Jan-19 05:36 40.570276 145.177344 232 31893ft 419kts
05-Jan-19 05:37 40.484452 145.073709 232 31896ft 418kts
05-Jan-19 05:38 40.398711 144.970439 232 31900ft 419kts
05-Jan-19 05:39 40.312927 144.867760 232 31905ft 418kts
05-Jan-19 05:40 40.226874 144.765203 232 31909ft 417kts
05-Jan-19 05:41 40.141426 144.663294 233 31914ft 415kts
05-Jan-19 05:42 40.056275 144.561480 233 31918ft 416kts
05-Jan-19 05:43 39.970616 144.459952 233 31932ft 413kts
05-Jan-19 05:44 39.886032 144.360100 233 31936ft 411kts
05-Jan-19 05:45 39.801332 144.260495 233 31999ft 411kts
05-Jan-19 05:46 39.716201 144.160718 233 31986ft 411kts
05-Jan-19 05:47 39.631301 144.061565 233 31977ft 411kts
05-Jan-19 05:48 39.546371 143.962705 233 31979ft 410kts
05-Jan-19 05:49 39.461329 143.864068 233 31981ft 408kts
05-Jan-19 05:50 39.376890 143.766455 233 31979ft 406kts
05-Jan-19 05:51 39.292711 143.669464 234 31982ft 403kts
05-Jan-19 05:52 39.209245 143.573630 234 31985ft 401kts
05-Jan-19 05:53 39.126297 143.478407 234 31986ft 399kts
05-Jan-19 05:54 39.043224 143.383562 234 31989ft 397kts
05-Jan-19 05:55 38.960606 143.289860 234 31991ft 396kts
05-Jan-19 05:56 38.879573 143.195690 238 31993ft 387kts
05-Jan-19 05:57 38.804709 143.096336 238 31995ft 387kts
05-Jan-19 05:58 38.729572 142.998162 238 31996ft 385kts
05-Jan-19 05:59 38.654719 142.900903 238 31998ft 383kts
05-Jan-19 06:00 38.580031 142.803472 238 31999ft 382kts
05-Jan-19 06:01 38.505712 142.706927 238 32011ft 381kts
05-Jan-19 06:02 38.431248 142.611185 238 32012ft 380kts
05-Jan-19 06:03 38.356721 142.515734 238 32026ft 378kts
05-Jan-19 06:04 38.283224 142.420950 239 32026ft 374kts
05-Jan-19 06:05 38.210556 142.326210 239 32027ft 372kts
05-Jan-19 06:06 38.138159 142.232206 239 32027ft 372kts
05-Jan-19 06:07 38.065625 142.138739 239 32020ft 371kts
05-Jan-19 06:08 37.992973 142.045266 239 32019ft 371kts
05-Jan-19 06:09 37.920485 141.952267 239 32020ft 371kts
05-Jan-19 06:10 37.847865 141.859430 239 32020ft 371kts
05-Jan-19 06:11 37.775038 141.766601 239 32021ft 371kts
05-Jan-19 06:12 37.703032 141.674108 239 32022ft 369kts
05-Jan-19 06:13 37.630875 141.582156 239 32023ft 368kts
05-Jan-19 06:14 37.558489 141.490332 239 32022ft 367kts
05-Jan-19 06:15 37.486514 141.399335 239 32023ft 366kts
05-Jan-19 06:16 37.414661 141.308746 239 32024ft 365kts
05-Jan-19 06:17 37.342896 141.218104 240 32024ft 364kts
05-Jan-19 06:18 37.271288 141.128420 239 32024ft 363kts
05-Jan-19 06:19 37.199416 141.038810 239 32023ft 363kts
05-Jan-19 06:20 37.129971 140.948556 243 32025ft 352kts
05-Jan-19 06:21 37.069321 140.852961 245 32023ft 352kts
05-Jan-19 06:22 37.008003 140.757430 244 32023ft 351kts
05-Jan-19 06:23 36.946741 140.662702 245 32024ft 349kts
05-Jan-19 06:24 36.886105 140.567903 244 32023ft 349kts
05-Jan-19 06:25 36.824649 140.473523 244 32022ft 349kts
05-Jan-19 06:26 36.763482 140.379855 244 32024ft 348kts
05-Jan-19 06:27 36.708177 140.284055 249 32028ft 337kts
05-Jan-19 06:28 36.657401 140.185453 249 32028ft 336kts
05-Jan-19 06:29 36.606398 140.087835 248 32028ft 336kts
05-Jan-19 06:30 36.555064 139.991060 248 32035ft 335kts
05-Jan-19 06:31 36.503641 139.894330 248 32035ft 334kts
05-Jan-19 06:32 36.449933 139.799067 246 32036ft 338kts
05-Jan-19 06:33 36.394618 139.705195 247 32037ft 337kts
05-Jan-19 06:34 36.339719 139.610766 247 32039ft 336kts
05-Jan-19 06:35 36.284950 139.516731 247 32032ft 337kts
05-Jan-19 06:36 36.229543 139.422409 247 32033ft 338kts
05-Jan-19 06:37 36.174436 139.328380 249 32035ft 333kts
05-Jan-19 06:38 36.133202 139.228628 254 32037ft 325kts
05-Jan-19 06:39 36.095366 139.126991 254 32034ft 324kts
05-Jan-19 06:40 36.058063 139.025655 254 32041ft 324kts
05-Jan-19 06:41 36.020109 138.924584 254 32042ft 325kts
05-Jan-19 06:42 35.981861 138.823192 254 32043ft 325kts
05-Jan-19 06:43 35.943756 138.722103 254 32044ft 325kts
05-Jan-19 06:44 35.905407 138.621209 254 32045ft 325kts
05-Jan-19 06:45 35.866922 138.520247 254 32045ft 324kts
05-Jan-19 06:46 35.828505 138.419864 254 32046ft 323kts
05-Jan-19 06:47 35.790536 138.319689 254 32046ft 323kts
05-Jan-19 06:48 35.752123 138.219346 254 32060ft 323kts
05-Jan-19 06:49 35.713652 138.119807 254 32058ft 322kts
05-Jan-19 06:50 35.675002 138.019956 254 32059ft 322kts
05-Jan-19 06:51 35.638491 137.919737 254 32061ft 322kts
05-Jan-19 06:52 35.601999 137.819280 254 32063ft 322kts
05-Jan-19 06:53 35.564395 137.718599 254 32067ft 324kts
05-Jan-19 06:54 35.526254 137.618345 253 32070ft 324kts
05-Jan-19 06:55 35.487964 137.517965 253 32075ft 325kts
05-Jan-19 06:56 35.420967 137.432217 228 32067ft 384kts
05-Jan-19 06:57 35.326671 137.368935 226 32077ft 386kts
05-Jan-19 06:58 35.232034 137.306431 226 32080ft 387kts
05-Jan-19 06:59 35.137001 137.243248 226 32088ft 388kts
05-Jan-19 07:00 35.042017 137.180089 226 32095ft 390kts
05-Jan-19 07:01 34.946701 137.116864 226 32107ft 391kts
05-Jan-19 07:02 34.850603 137.053552 226 32108ft 392kts
05-Jan-19 07:03 34.754481 136.990457 225 32106ft 393kts
05-Jan-19 07:04 34.663705 136.921482 233 32107ft 374kts
05-Jan-19 07:06 34.581106 136.843926 233 32103ft 377kts
05-Jan-19 07:07 34.497890 136.766621 232 32119ft 378kts
05-Jan-19 07:08 34.413870 136.689536 232 32125ft 377kts
05-Jan-19 07:09 34.330042 136.612832 232 32129ft 378kts
05-Jan-19 07:10 34.246886 136.535219 232 32135ft 378kts
05-Jan-19 07:11 34.163404 136.457002 232 32137ft 379kts
05-Jan-19 07:12 34.080012 136.379032 232 32135ft 378kts
05-Jan-19 07:13 33.996967 136.301178 232 32141ft 379kts
05-Jan-19 07:14 33.913021 136.223110 232 32143ft 381kts
05-Jan-19 07:15 33.829351 136.145422 232 32149ft 380kts
05-Jan-19 07:16 33.745350 136.067818 232 33826ft 377kts
05-Jan-19 07:17 33.662051 135.990569 233 34149ft 377kts
05-Jan-19 07:18 33.578680 135.913815 232 34150ft 378kts
05-Jan-19 07:19 33.494733 135.836830 232 34153ft 379kts
05-Jan-19 07:20 33.435582 135.745860 259 34147ft 336kts
05-Jan-19 07:21 33.411336 135.637476 259 34155ft 338kts
05-Jan-19 07:22 33.385671 135.528999 259 34157ft 338kts
05-Jan-19 07:23 33.359674 135.420693 258 34158ft 340kts
05-Jan-19 07:24 33.331736 135.312621 258 34171ft 340kts
05-Jan-19 07:25 33.303420 135.204012 258 34169ft 342kts
05-Jan-19 07:25 33.279735 135.113836 257 34166ft 342kts
05-Jan-19 07:27 33.246587 134.987382 258 34171ft 342kts
05-Jan-19 07:27 33.224904 134.896196 258 34170ft 341kts
05-Jan-19 07:28 33.198486 134.787388 258 34170ft 341kts
05-Jan-19 07:29 33.171936 134.678621 258 34168ft 341kts
05-Jan-19 07:30 33.145348 134.569512 258 34155ft 341kts
05-Jan-19 07:31 33.118744 134.461451 257 34153ft 337kts
05-Jan-19 07:32 33.092036 134.354312 257 34152ft 337kts
05-Jan-19 07:34 33.060755 134.228930 257 34151ft 337kts
05-Jan-19 07:34 33.039003 134.139297 257 34149ft 338kts
05-Jan-19 07:35 33.012767 134.031738 257 34147ft 338kts
05-Jan-19 07:36 32.986457 133.923712 257 34152ft 338kts
05-Jan-19 07:37 32.960585 133.815987 256 34150ft 339kts
05-Jan-19 07:38 32.933927 133.708030 256 34152ft 340kts
05-Jan-19 07:39 32.907205 133.600153 256 34160ft 340kts
05-Jan-19 07:40 32.880375 133.492369 256 34162ft 340kts
05-Jan-19 07:41 32.853283 133.384270 256 34166ft 341kts
05-Jan-19 07:42 32.826666 133.276135 256 34169ft 341kts
05-Jan-19 07:43 32.799436 133.168222 256 34172ft 341kts
05-Jan-19 07:44 32.771983 133.060007 256 34176ft 341kts
05-Jan-19 07:45 32.737649 132.954438 248 34177ft 348kts
05-Jan-19 07:46 32.690107 132.854166 247 34183ft 349kts
05-Jan-19 07:47 32.642210 132.753378 247 34181ft 349kts
05-Jan-19 07:48 32.594681 132.652685 247 34199ft 350kts
05-Jan-19 07:49 32.547457 132.551221 248 34199ft 351kts
05-Jan-19 07:50 32.499982 132.450005 247 34196ft 352kts
05-Jan-19 07:51 32.452177 132.348627 247 34193ft 353kts
05-Jan-19 07:52 32.403959 132.246719 247 34191ft 354kts
05-Jan-19 07:53 32.355676 132.144946 247 34187ft 355kts
05-Jan-19 07:54 32.307190 132.043073 247 34184ft 356kts
05-Jan-19 07:55 32.258373 131.940775 247 34181ft 356kts
05-Jan-19 07:56 32.209635 131.838922 247 34184ft 356kts
05-Jan-19 07:57 32.160814 131.737171 247 34181ft 356kts
05-Jan-19 07:58 32.111765 131.635225 247 34177ft 356kts
05-Jan-19 07:59 32.062887 131.533908 247 34175ft 356kts
05-Jan-19 08:00 32.014010 131.432867 247 34172ft 354kts
05-Jan-19 08:01 31.964823 131.331471 246 34172ft 359kts
05-Jan-19 08:02 31.915101 131.229246 246 34172ft 360kts
05-Jan-19 08:03 31.865161 131.126850 246 34174ft 360kts
05-Jan-19 08:04 31.815284 131.024846 246 34171ft 360kts
05-Jan-19 08:05 31.765346 130.922992 246 34167ft 360kts
05-Jan-19 08:06 31.715111 130.820849 246 34170ft 360kts
05-Jan-19 08:07 31.665029 130.719262 246 34172ft 359kts
05-Jan-19 08:08 31.614947 130.617955 246 34172ft 359kts
05-Jan-19 08:09 31.564639 130.516449 246 34173ft 358kts
05-Jan-19 08:10 31.514537 130.415606 246 34170ft 358kts
05-Jan-19 08:11 31.464312 130.314839 246 34175ft 358kts
05-Jan-19 08:12 31.414098 130.213689 246 34172ft 358kts
05-Jan-19 08:13 31.363584 130.113129 246 34179ft 359kts
05-Jan-19 08:14 31.312879 130.012427 246 34180ft 359kts
05-Jan-19 08:15 31.257051 129.914175 240 34182ft 367kts
05-Jan-19 08:16 31.193148 129.821175 240 34182ft 368kts
05-Jan-19 08:17 31.129586 129.727014 240 34185ft 369kts
05-Jan-19 08:18 31.066263 129.632729 240 34186ft 369kts
05-Jan-19 08:19 31.003057 129.538285 239 34189ft 370kts
05-Jan-19 08:20 30.939343 129.443317 239 34191ft 372kts
05-Jan-19 08:21 30.875311 129.348716 239 34197ft 373kts
05-Jan-19 08:22 30.811030 129.254047 239 34200ft 373kts
05-Jan-19 08:23 30.746925 129.158563 240 34203ft 373kts
05-Jan-19 08:24 30.683868 129.062734 240 34205ft 374kts
05-Jan-19 08:25 30.620554 128.966916 239 34205ft 374kts
05-Jan-19 08:26 30.556902 128.870702 239 34210ft 374kts
05-Jan-19 08:27 30.493771 128.774737 239 34211ft 375kts
05-Jan-19 08:28 30.429976 128.678490 239 34213ft 376kts
05-Jan-19 08:29 30.366096 128.582447 239 34215ft 377kts
05-Jan-19 08:30 30.301959 128.486280 239 34215ft 378kts
05-Jan-19 08:31 30.237325 128.389588 239 34216ft 379kts
05-Jan-19 08:32 30.172660 128.293081 239 34212ft 380kts
05-Jan-19 08:33 30.107750 128.196440 239 34212ft 381kts
05-Jan-19 08:34 30.042573 128.099321 239 34212ft 382kts
05-Jan-19 08:35 29.977335 128.002639 238 34212ft 382kts
05-Jan-19 08:36 29.911693 127.905824 238 34211ft 382kts
05-Jan-19 08:37 29.845626 127.809871 236 34211ft 385kts
05-Jan-19 08:38 29.775463 127.716561 236 34209ft 385kts
05-Jan-19 08:39 29.705351 127.622727 236 34215ft 386kts
05-Jan-19 08:40 29.635158 127.529157 236 34216ft 387kts
05-Jan-19 08:41 29.565617 127.435173 238 34215ft 385kts
05-Jan-19 08:42 29.499057 127.338128 238 34214ft 386kts
05-Jan-19 08:43 29.432237 127.241571 238 34209ft 387kts
05-Jan-19 08:44 29.365135 127.144916 238 34213ft 387kts
05-Jan-19 08:45 29.297920 127.047681 237 34212ft 389kts
05-Jan-19 08:46 29.230714 126.951161 237 34211ft 388kts
05-Jan-19 08:47 29.163058 126.854132 237 34211ft 389kts
05-Jan-19 08:48 29.095573 126.757515 237 34210ft 390kts
05-Jan-19 08:49 29.027674 126.660949 237 34208ft 390kts
05-Jan-19 08:50 28.959262 126.564088 236 34209ft 392kts
05-Jan-19 08:51 28.888709 126.469320 235 34252ft 392kts
05-Jan-19 08:52 28.818293 126.374177 235 34253ft 393kts
05-Jan-19 08:53 28.747323 126.278695 235 34253ft 394kts
05-Jan-19 08:54 28.676230 126.183508 235 34254ft 395kts
05-Jan-19 08:55 28.605506 126.087213 236 34255ft 395kts
05-Jan-19 08:56 28.536591 125.989875 236 34261ft 395kts
05-Jan-19 08:57 28.467375 125.892774 235 34263ft 396kts
05-Jan-19 08:58 28.397889 125.795199 236 34263ft 396kts
05-Jan-19 08:59 28.328611 125.697820 235 34264ft 397kts
05-Jan-19 09:00 28.259018 125.600575 235 34264ft 397kts
05-Jan-19 09:01 28.189244 125.503348 235 34264ft 396kts
05-Jan-19 09:02 28.119678 125.406637 235 34264ft 396kts
05-Jan-19 09:03 28.050020 125.310019 235 34265ft 395kts
05-Jan-19 09:04 27.980177 125.213347 235 34265ft 398kts
05-Jan-19 09:05 27.909365 125.115580 235 34266ft 403kts
05-Jan-19 09:06 27.838270 125.017635 235 34263ft 402kts
05-Jan-19 09:07 27.767425 124.919913 234 34264ft 403kts
05-Jan-19 09:08 27.696176 124.822385 234 34264ft 403kts
05-Jan-19 09:09 27.624621 124.724607 234 34264ft 403kts
05-Jan-19 09:10 27.553376 124.627186 234 34266ft 403kts
05-Jan-19 09:11 27.482070 124.529913 234 34264ft 403kts
05-Jan-19 09:12 27.410415 124.432372 234 34265ft 403kts
05-Jan-19 09:13 27.339274 124.335053 234 34265ft 403kts
05-Jan-19 09:14 27.267606 124.237359 234 34264ft 404kts
05-Jan-19 09:15 27.195811 124.140116 234 34267ft 405kts
05-Jan-19 09:16 27.123681 124.042747 234 34267ft 406kts
05-Jan-19 09:17 27.050742 123.945197 234 34242ft 406kts
05-Jan-19 09:18 26.977650 123.848449 234 34240ft 408kts
05-Jan-19 09:19 26.904247 123.751465 233 34239ft 408kts
05-Jan-19 09:20 26.830667 123.653922 233 34237ft 409kts
05-Jan-19 09:21 26.757063 123.556643 233 34236ft 410kts
05-Jan-19 09:22 26.682895 123.459006 233 34235ft 411kts
05-Jan-19 09:23 26.608842 123.361757 233 34233ft 412kts
05-Jan-19 09:25 26.534648 123.264445 233 34231ft 411kts
05-Jan-19 09:26 26.460195 123.166904 233 34229ft 412kts
05-Jan-19 09:27 26.385732 123.069928 233 34227ft 412kts
05-Jan-19 09:28 26.311431 122.972922 233 34227ft 412kts
05-Jan-19 09:29 26.237438 122.875200 233 34233ft 412kts
05-Jan-19 09:30 26.163592 122.777925 233 34231ft 412kts
05-Jan-19 09:31 26.089679 122.679994 233 34222ft 413kts
05-Jan-19 09:32 26.015527 122.582762 233 34225ft 413kts
05-Jan-19 09:33 25.940950 122.485174 233 34223ft 418kts
05-Jan-19 09:34 25.863652 122.388264 232 34226ft 417kts
05-Jan-19 09:35 25.787028 122.291774 232 34227ft 417kts
05-Jan-19 09:36 25.709898 122.195236 232 34227ft 417kts
05-Jan-19 09:37 25.632939 122.099167 232 34228ft 417kts
05-Jan-19 09:38 25.556648 122.002503 232 34228ft 417kts
05-Jan-19 09:39 25.480133 121.905456 232 34229ft 418kts
05-Jan-19 09:40 25.403680 121.808650 232 34229ft 419kts
05-Jan-19 09:41 25.327246 121.711355 232 34230ft 420kts
05-Jan-19 09:42 25.249965 121.613886 232 34232ft 421kts
05-Jan-19 09:43 25.172688 121.516647 232 34236ft 422kts
05-Jan-19 09:43 25.106716 121.436618 230 34234ft 424kts
05-Jan-19 09:45 25.013644 121.324299 230 34249ft 425kts
05-Jan-19 09:46 24.933938 121.228067 231 34253ft 425kts
05-Jan-19 09:46 24.867332 121.147283 230 34257ft 426kts
05-Jan-19 09:47 24.787417 121.050910 230 34254ft 427kts
05-Jan-19 09:49 24.693859 120.938416 230 34249ft 427kts
05-Jan-19 09:50 24.613270 120.841762 230 34242ft 429kts
05-Jan-19 09:50 24.545947 120.761158 230 34237ft 430kts
05-Jan-19 09:51 24.464905 120.664333 230 34233ft 431kts
05-Jan-19 09:52 24.383650 120.567447 230 34230ft 433kts
05-Jan-19 09:53 24.301855 120.470106 230 34230ft 433kts
05-Jan-19 09:54 24.219701 120.372522 230 34226ft 435kts
05-Jan-19 09:55 24.137522 120.275142 230 34228ft 436kts
05-Jan-19 09:56 24.055207 120.177766 230 34223ft 437kts
05-Jan-19 09:57 23.995112 120.106834 230 34227ft 437kts
05-Jan-19 09:58 23.934851 120.035790 230 34226ft 437kts
05-Jan-19 09:59 23.852253 119.938577 230 34224ft 437kts
05-Jan-19 10:00 23.769429 119.841040 230 34222ft 437kts
05-Jan-19 10:01 23.686505 119.743946 230 34223ft 438kts
05-Jan-19 10:02 23.603351 119.646261 232 34220ft 437kts
05-Jan-19 10:03 23.535389 119.537095 240 34219ft 436kts
05-Jan-19 10:04 23.471548 119.424728 239 34215ft 437kts
05-Jan-19 10:05 23.406363 119.312560 239 34223ft 437kts
05-Jan-19 10:06 23.341373 119.200434 239 34215ft 438kts
05-Jan-19 10:07 23.276010 119.088412 239 34217ft 439kts
05-Jan-19 10:08 23.210258 118.976013 239 34217ft 439kts
05-Jan-19 10:09 23.144533 118.863934 239 34220ft 440kts
05-Jan-19 10:10 23.078862 118.751826 239 34223ft 440kts
05-Jan-19 10:11 23.012555 118.639444 238 34224ft 441kts
05-Jan-19 10:12 22.946388 118.527490 238 34226ft 441kts
05-Jan-19 10:13 22.879474 118.415165 238 34223ft 442kts
05-Jan-19 10:14 22.812601 118.303115 238 34224ft 443kts
05-Jan-19 10:15 22.745881 118.190714 238 34222ft 444kts
05-Jan-19 10:16 22.678536 118.078194 238 34216ft 443kts
05-Jan-19 10:17 22.611328 117.966241 238 34242ft 444kts
05-Jan-19 10:18 22.544514 117.854211 238 34251ft 444kts
05-Jan-19 10:19 22.477617 117.741611 238 34251ft 444kts
05-Jan-19 10:20 22.410551 117.629396 238 34251ft 445kts
05-Jan-19 10:21 22.344996 117.515909 247 34254ft 442kts
05-Jan-19 10:22 22.328509 117.385134 268 34249ft 444kts
05-Jan-19 10:23 22.328074 117.252102 267 34250ft 443kts
05-Jan-19 10:24 22.325668 117.118899 266 34251ft 442kts
05-Jan-19 10:25 22.323406 116.986211 266 34251ft 442kts
05-Jan-19 10:26 22.320750 116.853864 266 34251ft 441kts
05-Jan-19 10:27 22.317919 116.721042 266 34251ft 441kts
05-Jan-19 10:28 22.314979 116.588357 266 34252ft 443kts
05-Jan-19 10:29 22.311923 116.455217 266 34251ft 443kts
05-Jan-19 10:30 22.308766 116.322208 266 34251ft 443kts
05-Jan-19 10:31 22.305494 116.189077 266 34251ft 445kts
05-Jan-19 10:32 22.302282 116.055251 266 34250ft 445kts
05-Jan-19 10:33 22.298657 115.921893 266 34250ft 445kts
05-Jan-19 10:34 22.295249 115.790318 266 33656ft 432kts
05-Jan-19 10:35 22.292313 115.660008 266 31281ft 431kts
05-Jan-19 10:36 22.288674 115.528988 266 29259ft 442kts
05-Jan-19 10:37 22.284824 115.398665 266 27187ft 424kts
05-Jan-19 10:38 22.281067 115.273844 266 25190ft 409kts
05-Jan-19 10:39 22.277521 115.153392 266 23243ft 395kts
05-Jan-19 10:40 22.273703 115.036393 266 21321ft 383kts
05-Jan-19 10:41 22.269996 114.923473 266 19814ft 363kts
05-Jan-19 10:42 22.266381 114.819885 266 19100ft 329kts
05-Jan-19 10:43 22.263089 114.720090 266 17895ft 341kts
05-Jan-19 10:44 22.259678 114.620541 266 16284ft 339kts
05-Jan-19 10:45 22.256134 114.518106 266 14342ft 335kts
05-Jan-19 10:46 22.252627 114.419573 266 12765ft 326kts
05-Jan-19 10:47 22.248942 114.324984 264 11309ft 319kts
05-Jan-19 10:48 22.226291 114.235261 249 10629ft 289kts
05-Jan-19 10:49 22.197238 114.158469 247 10011ft 263kts
05-Jan-19 10:50 22.169082 114.084054 247 8895ft 266kts
05-Jan-19 10:51 22.142394 114.013232 247 7805ft 262kts
05-Jan-19 10:52 22.114881 113.940714 247 6657ft 261kts
05-Jan-19 10:53 22.087556 113.868802 248 5573ft 257kts
05-Jan-19 10:54 22.095153 113.797370 298 4658ft 250kts
05-Jan-19 10:55 22.146352 113.754540 337 4170ft 234kts
05-Jan-19 10:56 22.201531 113.728552 336 3729ft 203kts
05-Jan-19 10:57 22.249904 113.737912 35 3081ft 188kts
05-Jan-19 10:58 22.274646 113.784305 71 2208ft 181kts
05-Jan-19 10:59 22.290265 113.833649 69 1254ft 159kts
05-Jan-19 11:00 22.303712 113.875831 67 481ft 153kts
05-Jan-19 11:01 22.317429 113.918201 68 42ft 117kts
05-Jan-19 11:02 22.319115 113.926947 99 41ft 4kts
05-Jan-19 11:03 22.319115 113.926947 99 41ft 4kts
05-Jan-19 11:04 22.319115 113.926947 99 41ft 4kts
05-Jan-19 11:05 22.319115 113.926947 99 41ft 4kts
05-Jan-19 11:06 22.319090 113.927105 100 41ft 4kts
05-Jan-19 11:07 22.317697 113.927752 253 41ft 13kts
05-Jan-19 11:08 22.316618 113.924263 251 41ft 11kts
05-Jan-19 11:09 22.315673 113.921314 249 41ft 9kts
05-Jan-19 11:10 22.313637 113.921232 161 41ft 8kts
05-Jan-19 11:11 22.311508 113.922013 161 41ft 11kts
05-Jan-19 11:12 22.307394 113.923491 163 41ft 15kts
05-Jan-19 11:13 22.307288 113.926558 70 41ft 11kts
05-Jan-19 11:14 22.308234 113.929546 71 41ft 9kts
05-Jan-19 11:15 22.307719 113.932556 165 41ft 12kts
05-Jan-19 11:16 22.305125 113.931357 252 41ft 13kts

Navigation Log

Ident Type
Flight plan parsing failed, navigation log unavailable